Time;durP1;ratioP1;P1;durP2;ratioP2;P2;SDS_P1;SDS_P2;PMS_P1;PMS_P2;Temp;Humidity;BMP_temperature;BMP_pressure;BME280_temperature;BME280_humidity;BME280_pressure;Samples;Min_cycle;Max_cycle;Signal;HPM_P1;HPM_P2
2022/01/21 00:01:18;;;;;;;5.03;2.70;;;21.20;38.60;;;;;;5069851;28;20063;-60
2022/01/21 00:03:44;;;;;;;6.30;2.95;;;21.20;38.60;;;;;;5064652;28;35711;-59
2022/01/21 00:06:10;;;;;;;5.72;2.97;;;21.10;38.60;;;;;;5070668;28;20066;-60
2022/01/21 00:08:37;;;;;;;7.53;3.20;;;21.10;38.60;;;;;;5066547;28;20060;-59
2022/01/21 00:11:02;;;;;;;8.18;3.20;;;21.10;38.60;;;;;;5069896;28;20133;-59
2022/01/21 00:13:34;;;;;;;6.38;3.05;;;21.10;38.60;;;;;;5069833;28;20570;-59
2022/01/21 00:16:05;;;;;;;7.05;3.08;;;21.10;38.70;;;;;;5050151;28;20055;-59
2022/01/21 00:18:32;;;;;;;5.72;3.10;;;21.00;38.60;;;;;;5066291;28;38975;-59
2022/01/21 00:31:55;;;;;;;7.70;3.03;;;20.90;38.70;;;;;;5067933;28;30901;-59
2022/01/21 00:34:21;;;;;;;6.65;3.10;;;20.90;38.70;;;;;;5065020;28;20031;-59
2022/01/21 00:36:47;;;;;;;5.10;2.70;;;20.90;38.80;;;;;;5070561;28;20045;-59
2022/01/21 00:39:13;;;;;;;6.65;3.13;;;20.90;38.80;;;;;;5066367;28;20045;-60
2022/01/21 00:41:55;;;;;;;5.88;2.83;;;20.80;38.70;;;;;;5068750;28;20086;-60
2022/01/21 00:44:20;;;;;;;5.03;2.58;;;20.80;38.70;;;;;;5064804;28;20116;-60
2022/01/21 00:46:46;;;;;;;5.68;2.53;;;20.80;38.80;;;;;;5067963;28;39027;-59
2022/01/21 00:49:11;;;;;;;6.75;2.85;;;20.80;38.70;;;;;;5067086;28;20147;-59
2022/01/21 00:51:37;;;;;;;5.75;2.65;;;20.80;38.80;;;;;;5068669;28;20048;-59
2022/01/21 00:54:03;;;;;;;6.03;2.70;;;20.80;38.80;;;;;;5068471;28;20388;-59
2022/01/21 00:56:28;;;;;;;5.35;2.72;;;20.70;38.70;;;;;;5068095;28;20497;-59
2022/01/21 00:58:54;;;;;;;7.03;2.58;;;20.70;38.80;;;;;;5068640;28;20049;-59
2022/01/21 01:01:19;;;;;;;4.68;2.30;;;20.70;38.70;;;;;;5062246;28;38662;-59
2022/01/21 01:03:45;;;;;;;4.10;2.08;;;20.70;38.70;;;;;;5068537;28;20044;-59
2022/01/21 01:06:10;;;;;;;4.07;1.92;;;20.60;38.80;;;;;;5068557;28;20032;-59
2022/01/21 01:08:36;;;;;;;4.82;2.22;;;20.60;38.80;;;;;;5070091;28;20059;-59
2022/01/21 01:11:31;;;;;;;5.30;1.88;;;20.60;38.80;;;;;;5070266;28;20127;-59
2022/01/21 01:22:00;;;;;;;5.65;2.53;;;20.50;38.80;;;;;;5073706;28;20422;-59
2022/01/21 01:29:56;;;;;;;4.97;1.75;;;20.50;38.80;;;;;;5065886;28;41008;-59
2022/01/21 01:32:24;;;;;;;4.00;2.05;;;20.40;38.80;;;;;;5073267;28;20043;-59
2022/01/21 01:34:50;;;;;;;3.85;1.80;;;20.40;38.80;;;;;;5070922;28;20035;-59
2022/01/21 01:37:32;;;;;;;5.25;1.77;;;20.40;38.80;;;;;;5071020;28;20073;-59
2022/01/21 01:40:15;;;;;;;7.10;1.90;;;20.40;38.80;;;;;;5069496;28;20464;-59
2022/01/21 01:50:42;;;;;;;4.82;1.70;;;20.30;38.80;;;;;;5065795;28;20101;-60
2022/01/21 01:53:09;;;;;;;4.88;2.20;;;20.30;38.80;;;;;;5072179;28;20048;-59
2022/01/21 01:55:36;;;;;;;6.97;1.70;;;20.30;38.80;;;;;;5068843;28;20397;-59
2022/01/21 01:58:02;;;;;;;4.13;1.83;;;20.30;39.00;;;;;;5067242;28;43785;-59
2022/01/21 02:00:28;;;;;;;4.70;1.65;;;20.30;39.10;;;;;;5070924;28;20131;-59
2022/01/21 02:02:53;;;;;;;6.03;1.63;;;20.30;39.40;;;;;;5071896;28;20123;-59
2022/01/21 02:05:19;;;;;;;5.75;1.75;;;20.30;39.50;;;;;;5068978;28;20040;-59
2022/01/21 02:07:46;;;;;;;4.57;1.50;;;20.30;39.70;;;;;;5068808;28;20083;-59
2022/01/21 02:10:11;;;;;;;6.75;2.20;;;20.30;39.90;;;;;;5069547;28;20052;-59
2022/01/21 02:12:39;;;;;;;6.15;1.85;;;20.30;39.90;;;;;;5066544;28;38668;-59
2022/01/21 02:15:05;;;;;;;3.67;1.42;;;20.30;40.00;;;;;;5068744;28;20468;-60
2022/01/21 02:22:44;;;;;;;8.27;2.10;;;20.20;40.20;;;;;;5071996;28;20402;-59
2022/01/21 02:25:20;;;;;;;7.45;1.67;;;20.20;40.20;;;;;;5066440;28;40828;-59
2022/01/21 02:27:51;;;;;;;7.78;1.83;;;20.20;40.20;;;;;;5071588;28;20024;-60
2022/01/21 02:30:18;;;;;;;7.10;1.73;;;20.20;40.20;;;;;;5068729;28;20516;-59
2022/01/21 02:32:58;;;;;;;5.28;1.48;;;20.20;40.30;;;;;;5068342;28;20040;-59
2022/01/21 02:35:25;;;;;;;4.10;1.80;;;20.20;40.30;;;;;;5073599;28;20090;-59
2022/01/21 02:37:51;;;;;;;4.93;1.60;;;20.10;40.30;;;;;;5070516;28;20032;-59
2022/01/21 02:40:18;;;;;;;4.28;1.40;;;20.10;40.20;;;;;;5068287;28;36621;-59
2022/01/21 02:42:43;;;;;;;6.18;2.28;;;20.10;40.30;;;;;;5070704;28;21161;-59
2022/01/21 02:45:13;;;;;;;4.88;1.45;;;20.10;40.30;;;;;;5070622;28;20041;-59
2022/01/21 02:47:39;;;;;;;6.78;1.75;;;20.10;40.30;;;;;;5068837;28;20040;-59
2022/01/21 02:50:05;;;;;;;4.85;1.60;;;20.10;40.40;;;;;;5069845;28;20055;-59
2022/01/21 02:52:40;;;;;;;5.10;1.52;;;20.10;40.30;;;;;;5068274;28;36154;-59
2022/01/21 02:55:07;;;;;;;4.50;1.63;;;20.10;40.30;;;;;;5069354;28;20072;-60
2022/01/21 02:57:33;;;;;;;3.97;1.40;;;20.00;40.40;;;;;;5066755;28;20044;-60
2022/01/21 02:59:58;;;;;;;4.28;1.38;;;20.00;40.40;;;;;;5071671;28;20044;-59
2022/01/21 03:02:24;;;;;;;3.10;1.40;;;20.00;40.30;;;;;;5061455;28;20064;-59
2022/01/21 03:05:01;;;;;;;7.38;1.60;;;20.00;40.30;;;;;;5067503;28;20044;-59
2022/01/21 03:07:27;;;;;;;3.28;1.35;;;20.00;40.30;;;;;;5065855;28;43203;-59
2022/01/21 03:09:52;;;;;;;4.30;1.60;;;20.00;40.30;;;;;;5069826;28;20268;-59
2022/01/21 03:12:18;;;;;;;3.13;1.10;;;20.00;40.30;;;;;;5069631;28;20052;-59
2022/01/21 03:14:44;;;;;;;3.58;1.40;;;20.00;40.20;;;;;;5066732;28;20488;-59
2022/01/21 03:17:09;;;;;;;3.28;1.10;;;20.00;40.30;;;;;;5069483;28;20043;-59
2022/01/21 03:19:35;;;;;;;2.95;1.40;;;19.90;40.20;;;;;;5063032;28;20048;-60
2022/01/21 03:22:02;;;;;;;5.07;1.88;;;19.90;40.20;;;;;;5065369;28;39282;-59
2022/01/21 03:24:28;;;;;;;3.78;1.30;;;19.90;40.20;;;;;;5068197;28;20040;-59
2022/01/21 03:26:53;;;;;;;4.95;1.38;;;19.90;40.10;;;;;;5072071;28;20464;-59
2022/01/21 03:29:19;;;;;;;4.15;1.10;;;19.90;40.20;;;;;;5067804;28;20040;-59
2022/01/21 03:31:45;;;;;;;2.75;0.98;;;19.90;40.20;;;;;;5069692;28;20056;-59
2022/01/21 03:34:11;;;;;;;3.40;1.17;;;19.80;40.10;;;;;;5065146;28;20156;-59
2022/01/21 03:36:38;;;;;;;1.83;0.70;;;19.80;40.10;;;;;;5069215;28;39328;-59
2022/01/21 03:39:04;;;;;;;3.80;1.30;;;19.80;40.10;;;;;;5063896;28;20467;-59
2022/01/21 03:41:30;;;;;;;2.85;1.08;;;19.80;40.10;;;;;;5072385;28;20075;-59
2022/01/21 03:43:55;;;;;;;2.47;1.10;;;19.80;40.00;;;;;;5066037;28;20078;-59
2022/01/21 03:46:21;;;;;;;3.53;1.30;;;19.80;40.00;;;;;;5070383;28;20135;-59
2022/01/21 03:48:49;;;;;;;4.30;1.15;;;19.80;40.10;;;;;;5066373;28;43662;-59
2022/01/21 03:51:17;;;;;;;3.10;1.00;;;19.80;40.00;;;;;;5070934;28;20102;-60
2022/01/21 03:53:44;;;;;;;3.05;1.13;;;19.80;40.00;;;;;;5066337;28;20035;-60
2022/01/21 03:56:09;;;;;;;3.75;1.02;;;19.80;40.00;;;;;;5069859;28;20044;-60
2022/01/21 03:58:35;;;;;;;2.33;0.93;;;19.80;40.00;;;;;;5065763;28;20044;-60
2022/01/21 04:01:01;;;;;;;2.15;1.10;;;19.80;40.00;;;;;;5071122;28;20146;-60
2022/01/21 04:03:27;;;;;;;3.72;1.00;;;19.70;40.00;;;;;;5063056;28;43591;-60
2022/01/21 04:05:52;;;;;;;4.05;1.08;;;19.70;39.90;;;;;;5071267;28;20089;-60
2022/01/21 04:08:18;;;;;;;2.55;1.10;;;19.70;40.00;;;;;;5067126;28;20801;-60
2022/01/21 04:10:48;;;;;;;2.50;0.90;;;19.70;40.00;;;;;;5065298;28;20044;-60
2022/01/21 04:13:15;;;;;;;1.95;1.30;;;19.70;40.00;;;;;;5068444;28;20051;-60
2022/01/21 04:15:47;;;;;;;2.85;1.02;;;19.70;39.90;;;;;;5068838;28;20029;-60
2022/01/21 04:18:14;;;;;;;2.35;0.90;;;19.70;39.90;;;;;;5064495;28;41573;-60
2022/01/21 04:20:41;;;;;;;2.58;1.08;;;19.60;40.00;;;;;;5067370;28;20366;-60
2022/01/21 04:23:07;;;;;;;3.83;1.40;;;19.60;39.80;;;;;;5069995;28;20086;-60
2022/01/21 04:25:32;;;;;;;2.28;0.85;;;19.60;40.60;;;;;;5067677;28;20088;-60
2022/01/21 04:27:58;;;;;;;3.60;0.98;;;19.60;39.80;;;;;;5070583;28;20548;-60
2022/01/21 04:30:24;;;;;;;2.40;1.10;;;19.60;39.80;;;;;;5065773;28;20042;-60
2022/01/21 04:32:50;;;;;;;3.33;1.08;;;19.60;39.80;;;;;;5067169;28;36585;-60
2022/01/21 04:35:15;;;;;;;2.58;1.08;;;19.60;39.90;;;;;;5069220;28;20087;-60
2022/01/21 04:37:49;;;;;;;1.83;0.93;;;19.60;39.90;;;;;;5070515;28;20040;-60
2022/01/21 04:40:17;;;;;;;2.72;1.10;;;19.60;39.80;;;;;;5065932;28;20396;-60
2022/01/21 04:48:12;;;;;;;2.63;1.10;;;19.60;40.60;;;;;;5074689;28;20035;-60
2022/01/21 04:50:52;;;;;;;2.63;1.10;;;19.50;39.80;;;;;;5072147;28;20037;-59
2022/01/21 04:53:18;;;;;;;3.10;1.17;;;19.50;39.80;;;;;;5075752;28;20143;-60
2022/01/21 04:55:43;;;;;;;2.53;0.88;;;19.50;39.80;;;;;;5072960;28;20236;-59
2022/01/21 04:58:09;;;;;;;3.05;1.13;;;19.50;39.80;;;;;;5077857;28;20044;-60
2022/01/21 05:00:35;;;;;;;2.90;1.00;;;19.50;39.80;;;;;;5065676;28;36284;-59
2022/01/21 05:03:00;;;;;;;2.10;0.90;;;19.50;39.80;;;;;;5067979;28;20047;-60
2022/01/21 05:05:26;;;;;;;2.45;1.00;;;19.50;39.80;;;;;;5072465;28;20063;-60
2022/01/21 05:07:53;;;;;;;3.88;1.05;;;19.50;39.80;;;;;;5075240;28;20043;-60
2022/01/21 05:10:19;;;;;;;3.15;0.82;;;19.50;39.80;;;;;;5076496;28;20098;-60
2022/01/21 05:12:44;;;;;;;2.63;1.00;;;19.50;39.80;;;;;;5072827;28;20406;-60
2022/01/21 05:15:21;;;;;;;3.25;1.08;;;19.50;39.80;;;;;;5072521;28;39028;-60
2022/01/21 05:17:49;;;;;;;1.67;0.73;;;19.50;39.80;;;;;;5071364;28;20041;-60
2022/01/21 05:20:16;;;;;;;2.40;0.90;;;19.50;39.90;;;;;;5071112;28;20055;-60
2022/01/21 05:22:42;;;;;;;1.45;0.80;;;19.50;39.90;;;;;;5073161;28;20035;-60
2022/01/21 05:25:09;;;;;;;4.15;1.10;;;19.50;39.80;;;;;;5075360;28;20371;-60
2022/01/21 05:27:35;;;;;;;1.98;0.90;;;19.50;39.90;;;;;;5073265;28;38705;-60
2022/01/21 05:30:01;;;;;;;1.27;0.80;;;19.50;39.90;;;;;;5076142;28;20128;-60
2022/01/21 05:32:26;;;;;;;2.13;1.08;;;19.50;39.90;;;;;;5072849;28;20501;-60
2022/01/21 05:34:52;;;;;;;2.35;0.88;;;19.50;39.90;;;;;;5072045;28;20040;-60
2022/01/21 05:37:18;;;;;;;2.58;0.82;;;19.50;39.90;;;;;;5076866;28;20048;-60
2022/01/21 05:39:45;;;;;;;2.50;1.00;;;19.50;39.90;;;;;;5072179;28;20051;-60
2022/01/21 05:42:11;;;;;;;4.00;0.85;;;19.50;39.90;;;;;;5074521;28;41110;-60
2022/01/21 05:47:05;;;;;;;2.47;0.90;;;19.50;40.00;;;;;;5073621;28;20044;-60
2022/01/21 05:49:33;;;;;;;3.28;1.02;;;19.50;39.90;;;;;;5073050;28;20531;-60
2022/01/21 05:52:05;;;;;;;1.95;0.82;;;19.50;39.90;;;;;;5073876;28;20057;-60
2022/01/21 05:54:31;;;;;;;2.10;0.70;;;19.50;39.80;;;;;;5077537;28;20071;-60
2022/01/21 05:56:57;;;;;;;3.22;0.82;;;19.60;39.80;;;;;;5066692;28;43347;-60
2022/01/21 05:59:24;;;;;;;2.30;0.82;;;19.50;39.80;;;;;;5073234;28;20048;-60
2022/01/21 06:01:51;;;;;;;2.17;0.90;;;19.60;39.80;;;;;;5068463;28;20123;-60
2022/01/21 06:04:16;;;;;;;3.65;0.80;;;19.60;39.80;;;;;;5072039;28;20162;-60
2022/01/21 06:06:42;;;;;;;1.77;0.63;;;19.60;39.80;;;;;;5068666;28;20052;-60
2022/01/21 06:09:08;;;;;;;3.03;0.70;;;19.60;39.80;;;;;;5075338;28;20102;-60
2022/01/21 06:11:34;;;;;;;2.92;0.88;;;19.60;39.80;;;;;;5054717;28;39187;-60
2022/01/21 06:14:01;;;;;;;1.77;0.70;;;19.60;39.80;;;;;;5071762;28;20127;-60
2022/01/21 06:16:27;;;;;;;2.45;1.00;;;19.60;39.70;;;;;;5070957;28;20072;-60
2022/01/21 06:18:52;;;;;;;3.15;1.05;;;19.70;39.80;;;;;;5070780;28;20040;-60
2022/01/21 06:21:18;;;;;;;2.25;0.80;;;19.70;39.80;;;;;;5070204;28;20043;-60
2022/01/21 06:23:44;;;;;;;2.28;0.73;;;19.70;39.70;;;;;;5063679;28;39182;-60
2022/01/21 06:26:09;;;;;;;2.95;0.70;;;19.70;39.70;;;;;;5071736;28;20064;-60
2022/01/21 06:28:35;;;;;;;2.25;0.73;;;19.70;39.70;;;;;;5067229;28;20182;-60
2022/01/21 06:31:00;;;;;;;4.07;1.02;;;19.70;39.70;;;;;;5071421;28;20048;-60
2022/01/21 06:33:26;;;;;;;1.67;0.68;;;19.70;39.70;;;;;;5065071;28;20538;-60
2022/01/21 06:35:53;;;;;;;3.90;0.95;;;19.70;39.80;;;;;;5069366;28;20044;-60
2022/01/21 06:38:19;;;;;;;2.15;0.80;;;19.80;39.90;;;;;;5067545;28;30004;-60
2022/01/21 06:40:46;;;;;;;1.85;0.68;;;19.80;40.00;;;;;;5071273;28;20044;-60
2022/01/21 06:43:12;;;;;;;2.50;0.80;;;19.80;40.10;;;;;;5066505;28;20044;-59
2022/01/21 06:45:39;;;;;;;2.90;0.82;;;19.80;40.20;;;;;;5068123;28;20036;-60
2022/01/21 06:48:04;;;;;;;2.72;1.00;;;19.80;40.60;;;;;;5069495;28;20045;-60
2022/01/21 06:50:31;;;;;;;1.50;0.63;;;19.80;40.20;;;;;;5067762;28;20382;-60
2022/01/21 06:52:57;;;;;;;5.65;1.08;;;19.80;40.30;;;;;;5062659;28;42963;-60
2022/01/21 06:55:23;;;;;;;2.20;0.70;;;19.80;40.30;;;;;;5067721;28;20649;-61
2022/01/21 06:57:48;;;;;;;1.90;0.90;;;19.90;40.40;;;;;;5066163;28;20121;-60
2022/01/21 07:00:18;;;;;;;2.05;0.60;;;19.90;40.40;;;;;;5065686;28;20277;-60
2022/01/21 07:02:45;;;;;;;1.50;0.67;;;19.90;40.40;;;;;;5069271;28;20630;-60
2022/01/21 07:05:11;;;;;;;1.70;0.80;;;19.90;40.40;;;;;;5066197;28;20040;-60
2022/01/21 07:07:37;;;;;;;1.50;0.60;;;20.00;40.50;;;;;;5065746;28;38892;-59
2022/01/21 07:10:05;;;;;;;2.15;0.90;;;20.00;40.50;;;;;;5067714;28;20097;-61
2022/01/21 07:12:31;;;;;;;2.50;0.70;;;20.00;40.80;;;;;;5066703;28;20072;-59
2022/01/21 07:14:57;;;;;;;1.77;0.70;;;20.00;40.40;;;;;;5067418;28;20046;-60
2022/01/21 07:17:23;;;;;;;2.42;0.95;;;20.00;40.50;;;;;;5067137;28;20048;-60
2022/01/21 07:19:48;;;;;;;1.83;0.70;;;20.00;40.40;;;;;;5065570;28;41055;-59
2022/01/21 07:22:14;;;;;;;3.08;0.82;;;20.00;40.40;;;;;;5069969;28;20527;-60
2022/01/21 07:24:39;;;;;;;2.03;0.80;;;20.00;40.40;;;;;;5069595;28;20638;-59
2022/01/21 07:27:05;;;;;;;2.00;0.70;;;20.10;40.40;;;;;;5067057;28;20036;-59
2022/01/21 07:29:31;;;;;;;2.97;0.77;;;20.10;40.30;;;;;;5070690;28;20037;-58
2022/01/21 07:31:56;;;;;;;1.63;0.90;;;20.10;40.40;;;;;;5065826;28;20044;-59
2022/01/21 07:34:23;;;;;;;3.38;0.82;;;20.10;40.40;;;;;;5066102;28;40758;-61
2022/01/21 07:36:49;;;;;;;2.25;0.70;;;20.10;40.30;;;;;;5067179;28;20048;-60
2022/01/21 07:39:14;;;;;;;1.73;0.80;;;20.10;40.40;;;;;;5066412;28;20094;-60
2022/01/21 07:41:40;;;;;;;3.83;0.80;;;20.10;40.30;;;;;;5068959;28;20036;-60
2022/01/21 07:44:06;;;;;;;2.65;0.73;;;20.20;40.30;;;;;;5064580;28;20101;-60
2022/01/21 07:46:31;;;;;;;3.17;1.08;;;20.20;40.30;;;;;;5068418;28;20406;-59
2022/01/21 07:48:59;;;;;;;3.65;1.02;;;20.20;40.30;;;;;;5061113;28;41298;-60
2022/01/21 07:51:25;;;;;;;2.13;0.98;;;20.20;40.30;;;;;;5068457;28;20139;-59
2022/01/21 07:53:51;;;;;;;2.95;0.80;;;20.20;40.30;;;;;;5062382;28;20094;-59
2022/01/21 07:56:18;;;;;;;3.03;0.93;;;20.20;40.30;;;;;;5065438;28;20063;-60
2022/01/21 07:58:43;;;;;;;2.17;0.65;;;20.20;40.20;;;;;;5062900;28;20063;-60
2022/01/21 08:01:09;;;;;;;1.90;0.75;;;20.30;40.30;;;;;;5068282;28;20033;-59
2022/01/21 08:03:35;;;;;;;2.03;0.77;;;20.30;40.30;;;;;;5061881;28;43590;-60
2022/01/21 08:06:00;;;;;;;1.88;0.70;;;20.30;40.30;;;;;;5063368;28;20036;-60
2022/01/21 08:08:26;;;;;;;2.60;0.63;;;20.30;40.20;;;;;;5065655;28;20436;-59
2022/01/21 08:10:53;;;;;;;2.15;0.70;;;20.30;40.20;;;;;;5068188;28;20571;-60
2022/01/21 08:13:19;;;;;;;2.63;0.88;;;20.30;40.20;;;;;;5066572;28;20105;-61
2022/01/21 08:15:44;;;;;;;3.53;0.80;;;20.30;40.30;;;;;;5064025;28;20532;-60
2022/01/21 08:18:10;;;;;;;3.00;1.10;;;20.40;40.50;;;;;;5064576;28;43102;-60
2022/01/21 08:20:36;;;;;;;2.50;0.85;;;20.40;40.60;;;;;;5064339;28;20040;-59
2022/01/21 08:23:01;;;;;;;4.30;0.82;;;20.40;40.70;;;;;;5065293;28;20032;-60
2022/01/21 08:25:27;;;;;;;1.45;0.68;;;20.40;40.80;;;;;;5065346;28;20032;-60
2022/01/21 08:27:53;;;;;;;2.38;0.63;;;20.40;40.80;;;;;;5064437;28;20462;-60
2022/01/21 08:30:18;;;;;;;2.05;0.70;;;20.40;40.90;;;;;;5064208;28;30980;-60
2022/01/21 08:32:44;;;;;;;2.35;0.82;;;20.50;41.00;;;;;;5066565;28;20064;-60
2022/01/21 08:35:10;;;;;;;3.30;0.80;;;20.50;41.00;;;;;;5063742;28;20138;-60
2022/01/21 08:37:36;;;;;;;1.63;0.82;;;20.50;40.90;;;;;;5068109;28;20032;-60
2022/01/21 08:40:04;;;;;;;2.95;1.10;;;20.50;40.90;;;;;;5067160;28;20081;-60
2022/01/21 08:42:30;;;;;;;2.05;0.60;;;20.50;41.00;;;;;;5071803;28;20044;-60
2022/01/21 08:44:55;;;;;;;2.63;0.80;;;20.50;41.10;;;;;;5064306;28;36146;-60
2022/01/21 08:47:22;;;;;;;2.08;0.90;;;20.50;41.10;;;;;;5065038;28;20037;-60
2022/01/21 08:49:49;;;;;;;2.67;1.10;;;20.50;41.10;;;;;;5065298;28;20468;-61
2022/01/21 08:52:20;;;;;;;2.20;1.17;;;20.50;41.30;;;;;;5068370;28;20132;-60
2022/01/21 08:54:50;;;;;;;2.95;1.15;;;20.60;41.40;;;;;;5065050;28;20048;-60
2022/01/21 08:57:18;;;;;;;1.13;0.90;;;20.50;41.50;;;;;;5069051;28;20079;-61
2022/01/21 08:59:44;;;;;;;2.45;0.90;;;20.60;41.60;;;;;;5064627;28;45720;-60
2022/01/21 09:02:10;;;;;;;2.05;0.98;;;20.60;41.70;;;;;;5068932;28;20296;-60
2022/01/21 09:04:36;;;;;;;2.38;1.00;;;20.60;41.70;;;;;;5066611;28;20144;-60
2022/01/21 09:07:02;;;;;;;4.68;1.30;;;20.60;41.70;;;;;;5068288;28;20036;-60
2022/01/21 09:09:28;;;;;;;3.60;1.10;;;20.60;41.80;;;;;;5071596;28;20067;-60
2022/01/21 09:11:59;;;;;;;3.30;1.38;;;20.60;41.90;;;;;;5066381;28;20054;-60
2022/01/21 09:14:29;;;;;;;2.97;1.52;;;20.60;42.00;;;;;;5069689;28;38414;-61
2022/01/21 09:16:56;;;;;;;3.40;1.17;;;20.60;42.00;;;;;;5065201;28;20058;-61
2022/01/21 09:19:23;;;;;;;4.07;1.10;;;20.70;42.00;;;;;;5070791;28;20044;-60
2022/01/21 09:21:51;;;;;;;3.83;1.20;;;20.70;42.00;;;;;;5067432;28;20036;-61
2022/01/21 09:24:18;;;;;;;1.77;0.77;;;20.60;42.00;;;;;;5067350;28;20048;-61
2022/01/21 09:26:43;;;;;;;2.17;0.88;;;20.60;42.10;;;;;;5068585;28;36391;-60
2022/01/21 09:29:09;;;;;;;3.78;1.10;;;20.70;42.10;;;;;;5064346;28;20048;-61
2022/01/21 09:31:35;;;;;;;2.28;1.00;;;20.70;42.20;;;;;;5070163;28;20051;-61
2022/01/21 09:34:01;;;;;;;2.90;1.20;;;20.70;42.20;;;;;;5067106;28;20052;-59
2022/01/21 09:36:27;;;;;;;3.38;1.00;;;20.70;42.20;;;;;;5068156;28;20071;-60
2022/01/21 09:38:52;;;;;;;4.40;1.33;;;20.70;42.20;;;;;;5070030;28;20339;-60
2022/01/21 09:41:18;;;;;;;3.78;1.17;;;20.70;42.20;;;;;;5068159;28;36355;-60
2022/01/21 09:43:46;;;;;;;3.50;1.13;;;20.70;42.30;;;;;;5071928;28;20536;-60
2022/01/21 09:46:13;;;;;;;3.22;1.63;;;20.70;42.40;;;;;;5069299;28;20052;-61
2022/01/21 09:48:49;;;;;;;3.47;1.42;;;20.70;42.40;;;;;;5067930;28;20043;-60
2022/01/21 09:51:16;;;;;;;3.38;1.42;;;20.70;42.30;;;;;;5066588;28;20113;-61
2022/01/21 09:53:41;;;;;;;4.97;1.50;;;20.70;42.40;;;;;;5067031;28;20044;-60
2022/01/21 09:56:07;;;;;;;4.10;1.77;;;20.70;42.40;;;;;;5064123;28;41204;-59
2022/01/21 09:58:33;;;;;;;5.10;1.55;;;20.70;42.40;;;;;;5072407;28;20047;-58
2022/01/21 10:01:05;;;;;;;5.95;1.77;;;20.70;42.50;;;;;;5064578;28;20123;-60
2022/01/21 10:03:31;;;;;;;4.65;1.67;;;20.70;42.60;;;;;;5069908;28;20028;-59
2022/01/21 10:05:57;;;;;;;4.50;1.50;;;20.70;42.60;;;;;;5066296;28;20114;-59
2022/01/21 10:08:24;;;;;;;4.32;1.65;;;20.80;42.70;;;;;;5070265;28;21806;-60
2022/01/21 10:10:51;;;;;;;5.68;1.60;;;20.80;42.70;;;;;;5069324;28;38995;-60
2022/01/21 10:13:18;;;;;;;5.10;1.55;;;20.80;42.70;;;;;;5049989;28;20909;-60
2022/01/21 10:15:44;;;;;;;3.10;1.25;;;20.80;42.70;;;;;;5070451;28;20040;-60
2022/01/21 10:18:16;;;;;;;3.58;1.67;;;20.80;42.70;;;;;;5064051;28;20043;-60
2022/01/21 10:21:04;;;;;;;2.92;1.30;;;20.80;42.70;;;;;;5066066;28;20049;-60
2022/01/21 10:23:33;;;;;;;3.40;1.17;;;20.80;42.70;;;;;;5060032;28;33860;-61
2022/01/21 10:26:05;;;;;;;4.15;1.27;;;20.80;42.80;;;;;;5067060;28;21217;-60
2022/01/21 10:28:33;;;;;;;2.60;1.23;;;20.80;42.90;;;;;;5065206;28;20865;-61
2022/01/21 10:31:18;;;;;;;5.03;1.55;;;20.80;43.00;;;;;;5066104;28;20038;-61
2022/01/21 10:33:52;;;;;;;5.68;2.10;;;20.80;43.00;;;;;;5070555;28;20322;-60
2022/01/21 10:36:32;;;;;;;3.45;1.40;;;20.80;43.10;;;;;;5066427;28;20056;-60
2022/01/21 10:39:30;;;;;;;2.65;1.55;;;20.80;43.20;;;;;;5067651;28;38760;-60
2022/01/21 10:41:52;;;;;;;5.05;1.50;;;20.80;43.30;;;;;;5068935;28;20423;-60
2022/01/21 10:44:19;;;;;;;5.13;1.35;;;20.90;43.40;;;;;;5068673;28;20039;-60
2022/01/21 10:47:05;;;;;;;2.80;1.33;;;20.90;43.40;;;;;;5071171;28;20028;-60
2022/01/21 10:49:31;;;;;;;3.85;1.30;;;20.90;43.50;;;;;;5068056;28;20092;-59
2022/01/21 10:51:56;;;;;;;1.90;1.20;;;20.80;43.60;;;;;;5065387;28;36362;-61
2022/01/21 10:54:26;;;;;;;4.80;1.52;;;20.80;43.70;;;;;;5067997;28;20048;-61
2022/01/21 10:57:13;;;;;;;4.63;2.08;;;20.90;43.80;;;;;;5067451;28;20044;-62
2022/01/21 10:59:58;;;;;;;4.25;1.83;;;20.90;43.90;;;;;;5070150;28;20052;-60
2022/01/21 11:02:33;;;;;;;4.32;1.60;;;20.90;43.90;;;;;;5064583;28;20044;-60
2022/01/21 11:05:02;;;;;;;4.57;1.55;;;20.90;44.00;;;;;;5068107;28;36444;-61
2022/01/21 11:07:54;;;;;;;4.63;2.03;;;20.90;44.10;;;;;;5066668;28;20101;-61
2022/01/21 11:10:31;;;;;;;3.67;1.90;;;20.90;44.10;;;;;;5068884;28;20128;-61
2022/01/21 11:12:57;;;;;;;3.95;1.90;;;20.90;44.30;;;;;;5070245;28;20043;-60
2022/01/21 11:15:23;;;;;;;4.40;1.75;;;20.90;44.50;;;;;;5065541;28;20076;-59
2022/01/21 11:17:57;;;;;;;4.82;1.90;;;20.90;44.50;;;;;;5069728;28;20796;-60
2022/01/21 11:20:32;;;;;;;5.63;1.88;;;21.00;44.60;;;;;;5065393;28;41145;-59
2022/01/21 11:23:00;;;;;;;5.65;2.00;;;21.00;44.70;;;;;;5066980;28;20472;-60
2022/01/21 11:25:51;;;;;;;3.83;1.52;;;21.00;44.60;;;;;;5059600;28;20032;-61
2022/01/21 11:28:21;;;;;;;4.97;1.90;;;21.00;44.60;;;;;;5063329;28;20120;-60
2022/01/21 11:30:47;;;;;;;6.18;1.98;;;21.00;44.60;;;;;;5067659;28;20048;-60
2022/01/21 11:33:13;;;;;;;4.40;1.83;;;21.00;44.70;;;;;;5060656;28;38640;-59
2022/01/21 11:35:39;;;;;;;6.93;2.13;;;21.00;44.60;;;;;;5068794;28;20118;-60
2022/01/21 11:38:08;;;;;;;6.70;2.00;;;21.00;44.60;;;;;;5063240;28;20044;-60
2022/01/21 11:40:34;;;;;;;7.00;2.05;;;21.00;44.70;;;;;;5064413;28;20381;-60
2022/01/21 11:43:01;;;;;;;5.47;1.83;;;21.00;44.80;;;;;;5065288;28;20067;-60
2022/01/21 11:48:49;;;;;;;4.60;1.88;;;21.00;45.00;;;;;;5064188;28;38745;-61
2022/01/21 11:50:49;;;;;;;5.45;2.00;;;21.00;45.20;;;;;;5067242;28;20103;-61
2022/01/21 11:53:35;;;;;;;4.15;2.08;;;21.00;45.20;;;;;;5068531;28;20103;-60
2022/01/21 11:56:00;;;;;;;5.78;1.90;;;21.10;45.50;;;;;;5069336;28;20054;-60
2022/01/21 11:58:26;;;;;;;5.20;2.05;;;21.00;45.60;;;;;;5067978;28;20082;-60
2022/01/21 12:00:52;;;;;;;4.72;2.10;;;21.10;45.80;;;;;;5070347;28;20056;-61
2022/01/21 12:03:23;;;;;;;7.47;2.42;;;21.10;45.90;;;;;;5063911;28;39753;-60
2022/01/21 12:05:50;;;;;;;6.15;2.53;;;21.10;46.00;;;;;;5056503;28;20139;-60
2022/01/21 12:08:46;;;;;;;5.47;2.00;;;21.10;46.20;;;;;;5066943;28;20095;-60
2022/01/21 12:11:55;;;;;;;3.97;1.90;;;21.10;46.20;;;;;;5067239;28;20048;-60
2022/01/21 12:14:38;;;;;;;5.72;1.90;;;21.10;46.30;;;;;;4999294;28;20472;-60
2022/01/21 12:17:20;;;;;;;4.57;1.60;;;21.20;46.40;;;;;;5059312;28;43363;-60
2022/01/21 12:19:48;;;;;;;3.20;1.73;;;21.10;46.30;;;;;;5064942;28;20036;-61
2022/01/21 12:22:18;;;;;;;3.85;1.50;;;21.10;46.30;;;;;;5065586;28;20423;-61
2022/01/21 12:25:09;;;;;;;4.50;1.92;;;21.10;46.30;;;;;;5068110;28;20028;-60
2022/01/21 12:27:36;;;;;;;4.78;1.50;;;21.20;46.30;;;;;;5067845;28;20069;-60
2022/01/21 12:30:20;;;;;;;5.63;1.67;;;21.10;46.20;;;;;;5060992;28;36141;-60
2022/01/21 12:32:53;;;;;;;5.80;1.95;;;21.10;46.20;;;;;;5066282;28;20032;-61
2022/01/21 12:35:19;;;;;;;5.20;1.85;;;21.10;46.20;;;;;;5060962;28;20527;-60
2022/01/21 12:40:54;;;;;;;5.53;1.88;;;21.10;46.20;;;;;;5068889;28;20469;-60
2022/01/21 12:43:35;;;;;;;5.00;1.65;;;21.10;46.20;;;;;;5065056;28;36340;-61
2022/01/21 12:46:03;;;;;;;4.10;1.58;;;21.20;46.10;;;;;;5067535;28;20040;-61
2022/01/21 12:48:34;;;;;;;7.93;1.83;;;21.10;46.00;;;;;;5066117;28;20040;-60
2022/01/21 12:51:13;;;;;;;2.55;1.60;;;21.10;45.90;;;;;;5065398;28;20075;-60
2022/01/21 12:55:54;;;;;;;5.53;1.80;;;21.10;45.80;;;;;;5068427;28;20659;-60
2022/01/21 12:56:26;;;;;;;5.05;1.52;;;21.10;45.80;;;;;;5065568;28;20044;-60
2022/01/21 12:58:52;;;;;;;3.85;1.80;;;21.10;45.60;;;;;;5065619;28;41097;-60
2022/01/21 13:01:19;;;;;;;4.32;1.58;;;21.10;46.30;;;;;;5067709;28;20062;-60
2022/01/21 13:03:56;;;;;;;3.55;1.52;;;21.10;45.50;;;;;;5069433;28;20039;-60
2022/01/21 13:06:36;;;;;;;3.30;1.83;;;21.10;45.30;;;;;;5072385;28;20044;-60
2022/01/21 13:09:10;;;;;;;4.20;1.80;;;21.10;45.10;;;;;;5070708;28;20052;-60
2022/01/21 13:11:41;;;;;;;7.65;1.70;;;21.10;45.00;;;;;;5071233;28;41158;-60
2022/01/21 13:17:15;;;;;;;3.90;1.38;;;21.10;44.90;;;;;;5071109;28;20086;-60
2022/01/21 13:19:56;;;;;;;3.22;1.23;;;21.00;44.80;;;;;;5071929;28;20074;-60
2022/01/21 13:22:23;;;;;;;4.32;1.70;;;21.00;44.70;;;;;;5055725;28;20040;-60
2022/01/21 13:25:15;;;;;;;2.38;1.30;;;21.00;44.70;;;;;;5063479;28;20040;-60
2022/01/21 13:27:44;;;;;;;4.40;1.42;;;21.00;44.60;;;;;;5062557;28;33775;-60
2022/01/21 13:30:14;;;;;;;4.32;1.52;;;21.00;44.60;;;;;;5070796;28;20102;-62
2022/01/21 13:32:40;;;;;;;4.30;1.80;;;21.00;44.60;;;;;;5066513;28;20105;-60
2022/01/21 13:35:11;;;;;;;4.55;1.63;;;21.00;44.50;;;;;;5068440;28;20449;-60
2022/01/21 13:37:40;;;;;;;;;;;21.00;44.50;;;;;;5065998;28;20054;-60
2022/01/21 13:40:08;;;;;;;4.18;1.60;;;21.00;44.40;;;;;;5067379;28;38782;-60
2022/01/21 13:42:35;;;;;;;6.13;1.67;;;21.00;44.50;;;;;;5071561;28;20035;-60
2022/01/21 13:45:08;;;;;;;5.43;1.45;;;21.00;44.50;;;;;;5066859;28;20062;-60
2022/01/21 13:47:36;;;;;;;4.32;1.60;;;20.90;44.30;;;;;;5068024;28;20032;-59
2022/01/21 13:50:29;;;;;;;4.57;1.77;;;20.90;44.30;;;;;;5068415;28;20048;-60